createdAt,value
2022-10-21T00:00:39.656Z,8.45
2022-10-21T00:03:07.354Z,7.80
2022-10-21T00:05:34.429Z,8.32
2022-10-21T00:08:01.418Z,8.00
2022-10-21T00:10:28.927Z,7.65
2022-10-21T00:12:55.964Z,8.32
2022-10-21T00:15:22.989Z,8.18
2022-10-21T00:17:50.124Z,8.50
2022-10-21T00:20:17.522Z,8.88
2022-10-21T00:22:44.645Z,8.40
2022-10-21T00:25:11.749Z,8.15
2022-10-21T00:27:39.323Z,8.25
2022-10-21T00:30:08.670Z,8.27
2022-10-21T00:32:36.192Z,8.52
2022-10-21T00:35:03.632Z,8.23
2022-10-21T00:37:32.025Z,8.65
2022-10-21T00:40:02.375Z,7.95
2022-10-21T00:42:37.852Z,7.65
2022-10-21T00:45:06.689Z,8.15
2022-10-21T00:47:40.796Z,8.30
2022-10-21T00:50:42.463Z,8.07
2022-10-21T00:53:13.856Z,7.90
2022-10-21T00:55:52.595Z,8.25
2022-10-21T00:58:24.251Z,7.68
2022-10-21T01:00:54.983Z,7.95
2022-10-21T01:03:24.366Z,7.70
2022-10-21T01:05:52.775Z,7.97
2022-10-21T01:08:20.839Z,7.80
2022-10-21T01:10:50.826Z,8.07
2022-10-21T01:13:48.627Z,7.32
2022-10-21T01:16:50.575Z,7.45
2022-10-21T01:19:26.309Z,7.60
2022-10-21T01:22:01.930Z,7.53
2022-10-21T01:24:54.861Z,7.10
2022-10-21T01:27:26.254Z,7.32
2022-10-21T01:30:01.869Z,6.82
2022-10-21T01:32:34.885Z,7.38
2022-10-21T01:35:21.732Z,7.00
2022-10-21T01:38:09.431Z,6.60
2022-10-21T01:41:10.005Z,7.15
2022-10-21T01:43:55.791Z,6.90
2022-10-21T01:48:58.242Z,6.97
2022-10-21T01:51:29.047Z,6.90
2022-10-21T01:54:26.014Z,6.82
2022-10-21T01:56:54.614Z,6.55
2022-10-21T01:59:25.251Z,7.20
2022-10-21T02:01:53.529Z,6.57
2022-10-21T02:04:22.119Z,6.50
2022-10-21T02:06:49.541Z,6.13
2022-10-21T02:09:16.640Z,6.53
2022-10-21T02:11:47.245Z,6.32
2022-10-21T02:14:32.465Z,6.38
2022-10-21T02:17:00.723Z,6.45
2022-10-21T02:19:28.274Z,6.07
2022-10-21T02:22:00.549Z,6.28
2022-10-21T02:24:39.524Z,5.97
2022-10-21T02:27:06.783Z,5.82
2022-10-21T02:29:41.934Z,6.25
2022-10-21T02:32:36.856Z,6.10
2022-10-21T02:35:46.420Z,5.88
2022-10-21T02:38:38.361Z,6.25
2022-10-21T02:41:10.455Z,5.75
2022-10-21T02:43:44.191Z,5.95
2022-10-21T02:46:13.820Z,5.63
2022-10-21T02:48:47.291Z,5.88
2022-10-21T02:51:14.883Z,5.78
2022-10-21T02:53:42.269Z,5.95
2022-10-21T02:56:09.466Z,5.75
2022-10-21T02:58:36.554Z,6.03
2022-10-21T03:01:06.209Z,5.95
2022-10-21T03:03:33.388Z,6.07
2022-10-21T03:06:00.409Z,6.20
2022-10-21T03:08:27.516Z,6.20
2022-10-21T03:10:55.441Z,5.97
2022-10-21T03:13:23.199Z,6.38
2022-10-21T03:15:51.029Z,6.15
2022-10-21T03:18:18.884Z,6.10
2022-10-21T03:20:50.316Z,6.20
2022-10-21T03:23:20.834Z,6.38
2022-10-21T03:25:48.178Z,6.15
2022-10-21T03:28:15.554Z,6.50
2022-10-21T03:30:42.725Z,6.15
2022-10-21T03:33:09.734Z,6.70
2022-10-21T03:35:36.780Z,6.57
2022-10-21T03:38:03.876Z,6.35
2022-10-21T03:40:30.860Z,6.90
2022-10-21T03:42:58.959Z,6.32
2022-10-21T03:45:26.528Z,7.00
2022-10-21T03:47:53.479Z,6.93
2022-10-21T03:50:26.098Z,6.72
2022-10-21T03:52:53.841Z,6.43
2022-10-21T03:55:24.240Z,6.70
2022-10-21T03:57:52.429Z,6.82
2022-10-21T04:00:19.741Z,6.50
2022-10-21T04:02:46.840Z,6.72
2022-10-21T04:05:13.841Z,6.40
2022-10-21T04:07:41.124Z,6.65
2022-10-21T04:10:08.894Z,7.13
2022-10-21T04:12:36.217Z,7.38
2022-10-21T04:15:04.469Z,6.60
2022-10-21T04:17:31.494Z,6.75
2022-10-21T04:19:58.475Z,6.82
2022-10-21T04:22:25.560Z,6.80
2022-10-21T04:24:52.584Z,7.13
2022-10-21T04:27:19.655Z,6.75
2022-10-21T04:29:46.675Z,6.43
2022-10-21T04:32:13.828Z,6.70
2022-10-21T04:34:40.990Z,7.05
2022-10-21T04:37:08.274Z,6.15
2022-10-21T04:39:35.421Z,6.90
2022-10-21T04:42:05.664Z,6.30
2022-10-21T04:44:37.455Z,6.78
2022-10-21T04:47:06.275Z,6.50
2022-10-21T04:49:33.424Z,6.38
2022-10-21T04:52:00.917Z,6.53
2022-10-21T04:54:27.989Z,6.68
2022-10-21T04:56:55.040Z,6.60
2022-10-21T04:59:22.211Z,6.00
2022-10-21T05:01:51.686Z,6.30
2022-10-21T05:04:18.889Z,6.53
2022-10-21T05:06:45.976Z,6.43
2022-10-21T05:09:13.269Z,6.25
2022-10-21T05:11:40.284Z,6.28
2022-10-21T05:16:50.952Z,6.13
2022-10-21T05:19:17.974Z,6.28
2022-10-21T05:21:47.637Z,6.93
2022-10-21T05:24:15.949Z,6.72
2022-10-21T05:26:45.613Z,6.30
2022-10-21T05:29:12.720Z,5.97
2022-10-21T05:31:44.198Z,6.53
2022-10-21T05:34:15.520Z,6.63
2022-10-21T05:36:42.516Z,8.85
2022-10-21T05:39:11.611Z,8.32
2022-10-21T05:41:41.024Z,9.90
2022-10-21T05:44:10.110Z,9.60
2022-10-21T05:46:37.115Z,10.60
2022-10-21T05:49:04.341Z,10.70
2022-10-21T05:51:33.201Z,10.93
2022-10-21T05:54:00.269Z,10.93
2022-10-21T05:56:27.389Z,9.27
2022-10-21T05:58:54.452Z,10.05
2022-10-21T06:01:21.555Z,10.27
2022-10-21T06:03:48.710Z,10.45
2022-10-21T06:06:16.097Z,11.15
2022-10-21T06:08:43.275Z,10.65
2022-10-21T06:11:16.705Z,10.80
2022-10-21T06:13:43.941Z,11.30
2022-10-21T06:16:12.594Z,9.38
2022-10-21T06:18:40.812Z,10.88
2022-10-21T06:21:08.309Z,11.18
2022-10-21T06:23:35.813Z,9.15
2022-10-21T06:26:16.041Z,8.85
2022-10-21T06:28:44.560Z,8.60
2022-10-21T06:31:15.072Z,8.38
2022-10-21T06:33:42.575Z,8.32
2022-10-21T06:36:09.674Z,10.68
2022-10-21T06:38:37.855Z,9.73
2022-10-21T06:41:10.533Z,9.52
2022-10-21T06:43:40.625Z,9.50
2022-10-21T06:46:10.374Z,9.82
2022-10-21T06:48:37.435Z,10.07
2022-10-21T06:51:07.205Z,9.82
2022-10-21T06:53:38.111Z,9.48
2022-10-21T06:56:09.559Z,9.70
2022-10-21T06:58:37.791Z,9.90
2022-10-21T07:01:27.263Z,9.60
2022-10-21T07:04:00.362Z,9.45
2022-10-21T07:06:27.574Z,9.90
2022-10-21T07:08:58.157Z,9.90
2022-10-21T07:11:27.294Z,9.43
2022-10-21T07:13:57.205Z,10.77
2022-10-21T07:16:26.661Z,10.15
2022-10-21T07:18:54.191Z,10.60
2022-10-21T07:21:23.524Z,11.93
2022-10-21T07:34:56.040Z,12.75
2022-10-21T07:37:23.360Z,12.02
2022-10-21T07:51:30.197Z,20.50
2022-10-21T07:54:00.171Z,13.77
2022-10-21T07:56:33.142Z,16.92
2022-10-21T07:59:01.686Z,15.48
2022-10-21T08:01:29.436Z,19.63
2022-10-21T08:03:57.723Z,14.88
2022-10-21T08:06:26.232Z,12.93
2022-10-21T08:08:53.704Z,12.23
2022-10-21T08:11:25.863Z,17.55
2022-10-21T08:13:53.703Z,13.05
2022-10-21T08:16:21.297Z,15.93
2022-10-21T08:18:48.877Z,13.52
2022-10-21T08:21:16.743Z,14.82
2022-10-21T08:23:44.377Z,15.43
2022-10-21T08:26:14.668Z,14.23
2022-10-21T08:28:44.212Z,11.75
2022-10-21T08:31:14.375Z,14.77
2022-10-21T08:33:41.886Z,14.43
2022-10-21T08:36:21.547Z,12.68
2022-10-21T08:38:49.703Z,15.13
2022-10-21T08:41:25.403Z,15.10
2022-10-21T08:43:54.596Z,16.25
2022-10-21T08:46:27.337Z,16.90
2022-10-21T08:49:08.226Z,17.67
2022-10-21T08:51:51.047Z,17.67
2022-10-21T08:54:26.651Z,12.98
2022-10-21T08:56:56.717Z,11.10
2022-10-21T08:59:25.586Z,11.40
2022-10-21T09:02:05.904Z,10.43
2022-10-21T09:04:52.322Z,10.35
2022-10-21T09:07:53.507Z,10.05
2022-10-21T09:10:51.427Z,10.27
2022-10-21T09:13:42.332Z,9.63
2022-10-21T09:16:19.435Z,10.27
2022-10-21T09:19:08.182Z,10.15
2022-10-21T09:21:52.867Z,9.98
2022-10-21T09:24:34.068Z,9.57
2022-10-21T09:27:03.571Z,9.50
2022-10-21T09:29:50.122Z,9.70
2022-10-21T09:32:43.226Z,9.30
2022-10-21T09:35:22.101Z,9.60
2022-10-21T09:37:54.237Z,9.40
2022-10-21T09:40:30.276Z,9.63
2022-10-21T09:42:59.778Z,9.65
2022-10-21T09:45:37.064Z,9.18
2022-10-21T09:49:06.941Z,9.18
2022-10-21T09:51:35.491Z,8.25
2022-10-21T09:54:12.416Z,9.00
2022-10-21T09:57:05.802Z,8.57
2022-10-21T09:59:33.636Z,9.25
2022-10-21T10:02:16.287Z,9.15
2022-10-21T10:04:43.381Z,8.55
2022-10-21T10:07:34.986Z,8.75
2022-10-21T10:10:22.502Z,8.43
2022-10-21T10:12:57.416Z,8.40
2022-10-21T10:15:44.941Z,7.90
2022-10-21T10:18:26.571Z,8.60
2022-10-21T10:21:14.991Z,8.30
2022-10-21T10:23:44.577Z,8.10
2022-10-21T10:26:18.442Z,8.40
2022-10-21T10:28:52.057Z,8.25
2022-10-21T10:31:34.136Z,7.88
2022-10-21T10:34:08.237Z,7.63
2022-10-21T10:36:38.167Z,7.38
2022-10-21T10:39:34.065Z,8.30
2022-10-21T10:42:02.286Z,8.02
2022-10-21T10:44:43.431Z,8.32
2022-10-21T10:47:29.611Z,8.10
2022-10-21T10:49:59.316Z,8.23
2022-10-21T10:52:26.404Z,7.82
2022-10-21T10:55:12.056Z,7.90
2022-10-21T10:57:46.020Z,7.75
2022-10-21T11:00:25.546Z,7.28
2022-10-21T11:03:07.553Z,7.63
2022-10-21T11:06:13.506Z,8.10
2022-10-21T11:09:02.526Z,7.65
2022-10-21T11:11:46.351Z,7.35
2022-10-21T11:14:21.754Z,7.68
2022-10-21T11:16:59.625Z,7.57
2022-10-21T11:20:04.764Z,7.65
2022-10-21T11:23:09.423Z,7.25
2022-10-21T11:25:43.641Z,7.18
2022-10-21T11:28:44.561Z,7.47
2022-10-21T11:31:37.326Z,7.40
2022-10-21T11:34:31.675Z,7.65
2022-10-21T11:37:20.483Z,7.75
2022-10-21T11:40:22.527Z,7.43
2022-10-21T11:42:52.531Z,7.75
2022-10-21T11:45:32.096Z,6.93
2022-10-21T11:48:08.736Z,7.70
2022-10-21T11:50:44.117Z,7.55
2022-10-21T11:53:40.761Z,7.78
2022-10-21T11:56:29.440Z,7.13
2022-10-21T11:59:02.312Z,6.95
2022-10-21T12:01:32.481Z,6.90
2022-10-21T12:04:38.144Z,7.20
2022-10-21T12:07:24.251Z,7.13
2022-10-21T12:10:01.687Z,7.32
2022-10-21T12:12:39.745Z,7.25
2022-10-21T12:15:34.726Z,6.95
2022-10-21T12:18:04.991Z,6.50
2022-10-21T12:20:33.161Z,6.90
2022-10-21T12:23:06.401Z,7.15
2022-10-21T12:25:39.421Z,7.60
2022-10-21T12:28:25.804Z,7.03
2022-10-21T12:31:11.966Z,7.30
2022-10-21T12:33:40.882Z,6.60
2022-10-21T12:36:44.801Z,7.00
2022-10-21T12:39:46.516Z,7.00
2022-10-21T12:42:25.532Z,7.30
2022-10-21T12:44:53.633Z,6.95
2022-10-21T12:47:36.919Z,7.18
2022-10-21T12:50:29.393Z,7.28
2022-10-21T12:53:20.442Z,6.75
2022-10-21T12:55:58.887Z,7.43
2022-10-21T12:58:28.571Z,6.72
2022-10-21T13:01:00.228Z,7.32
2022-10-21T13:03:45.398Z,6.80
2022-10-21T13:06:12.858Z,6.78
2022-10-21T13:08:39.899Z,7.35
2022-10-21T13:11:14.068Z,6.55
2022-10-21T13:13:43.051Z,6.72
2022-10-21T13:16:19.127Z,6.85
2022-10-21T13:19:01.636Z,6.72
2022-10-21T13:21:34.353Z,7.00
2022-10-21T13:24:15.896Z,7.03
2022-10-21T13:26:51.809Z,6.55
2022-10-21T13:29:41.929Z,7.18
2022-10-21T13:32:22.451Z,6.93
2022-10-21T13:35:03.754Z,6.50
2022-10-21T13:37:43.231Z,6.30
2022-10-21T13:40:19.537Z,6.47
2022-10-21T13:42:54.152Z,6.82
2022-10-21T13:45:36.085Z,6.20
2022-10-21T13:48:05.227Z,5.90
2022-10-21T13:50:38.579Z,7.15
2022-10-21T13:53:35.932Z,6.40
2022-10-21T13:56:06.606Z,6.68
2022-10-21T15:07:35.648Z,6.38
2022-10-21T15:10:02.715Z,6.00
2022-10-21T15:12:48.858Z,6.28
2022-10-21T15:15:40.984Z,6.13
2022-10-21T15:18:20.891Z,6.03
2022-10-21T15:21:01.623Z,6.38
2022-10-21T15:23:40.291Z,6.15
2022-10-21T15:26:37.463Z,6.53
2022-10-21T15:29:25.926Z,5.82
2022-10-21T15:31:53.757Z,5.97
2022-10-21T15:34:21.122Z,6.20
2022-10-21T15:36:48.506Z,6.30
2022-10-21T15:39:15.626Z,5.90
2022-10-21T15:41:43.123Z,6.30
2022-10-21T15:44:17.800Z,6.25
2022-10-21T15:46:50.009Z,6.15
2022-10-21T15:49:22.241Z,6.50
2022-10-21T15:51:50.065Z,5.75
2022-10-21T15:54:18.426Z,6.25
2022-10-21T15:56:49.191Z,5.65
2022-10-21T15:59:22.952Z,5.82
2022-10-21T16:01:51.150Z,5.97
2022-10-21T16:04:19.401Z,5.70
2022-10-21T16:06:48.970Z,6.13
2022-10-21T16:09:29.126Z,5.95
2022-10-21T16:12:00.355Z,6.07
2022-10-21T16:14:30.553Z,6.10
2022-10-21T16:16:59.463Z,6.25
2022-10-21T16:19:26.782Z,6.43
2022-10-21T16:21:54.151Z,6.45
2022-10-21T16:24:24.033Z,6.07
2022-10-21T16:26:54.050Z,6.20
2022-10-21T16:29:24.158Z,6.07
2022-10-21T16:31:51.819Z,6.50
2022-10-21T16:34:19.673Z,7.28
2022-10-21T16:36:46.898Z,7.20
2022-10-21T16:39:25.503Z,7.43
2022-10-21T16:41:52.891Z,7.38
2022-10-21T16:44:19.952Z,7.40
2022-10-21T16:46:55.281Z,7.35
2022-10-21T16:49:27.111Z,7.50
2022-10-21T16:51:54.840Z,7.40
2022-10-21T16:54:35.201Z,7.47
2022-10-21T16:57:59.117Z,7.93
2022-10-21T17:00:26.227Z,7.70
2022-10-21T17:02:53.976Z,7.43
2022-10-21T17:05:50.471Z,7.43
2022-10-21T17:08:17.616Z,7.47
2022-10-21T17:10:45.093Z,7.15
2022-10-21T17:13:15.439Z,7.13
2022-10-21T17:15:42.918Z,7.20
2022-10-21T17:22:17.042Z,7.10
2022-10-21T17:28:25.202Z,6.90
2022-10-21T17:31:04.781Z,7.60
2022-10-21T17:33:32.332Z,6.90
2022-10-21T17:35:59.566Z,6.97
2022-10-21T17:38:26.771Z,6.90
2022-10-21T17:40:56.287Z,6.65
2022-10-21T20:37:09.057Z,5.05
2022-10-21T20:39:56.229Z,5.22
